My Meet Scores
Adrienne Staffa, GymNasti - MyMeetScores.com
Top100 | Top Teams | Upcoming Meets | Completed Meets | Latest | Add Scores | Help| Support | Bookmark and Share

Adrienne Staffa, GymNasti
Personal Bests
LevelVault BarsBeamFloorAA
39.6509.350 9.4009.52537.650
49.1509.275 9.3509.42536.625
Meet Scores
Date Meet Team Session Level Division Vault Bars Beam Floor AA
2020-03-06 Illinois Level 4 State Championships GymNasti 5 4 Jr D 9.150 3T 8.700 25 9.350 12T 9.425 4 36.625 13
2020-02-14 Midwest Open GymNasti 06B 4 Senior B 8.700 9T 9.075 8 8.450 15 9.400 3 35.625 9
2020-01-24 Uga Invitational GymNasti B2 4 Jr B 8.325 10 9.275 4 8.925 10T 9.250 1 35.775 5
2020-01-10 St Jude Benefit Meet GymNasti 4A 4 Sr A 7.750 18 8.675 14 8.450 12 9.000 5 33.875 16
2019-12-13 2019 St Nick GymNasti 6B 4 SrA 8.975 5T 8.625 8 8.900 7T 9.400 5 35.900 6
2019-03-22 Illinois Gymnastics State Championships GymNasti 6 4 YT C 8.725 23 8.200 24 8.725 21 9.000 16T 34.650 22
2019-02-08 IGI Chicago Style 2019 GymNasti 44 4 232 Lakeshore L4 B 8.725 12 8.550 12 8.050 17 9.025 6 34.350 15
2019-01-25 King Arthur Invitational GymNasti 11 4 JR B 8.625 6 8.025 11 9.175 6T 9.100 5 34.925 8
2019-01-11 St Jude Benefit Meet GymNasti 4A 4 Jr B 8.450 10 8.100 10 9.150 3T 9.225 1T 34.925 7
2018-12-07 St. Nick Invite 2018 GymNasti 5A 4 JrB 8.825 10 8.000 17T 8.575 16 8.950 10 34.350 14
2018-05-03 Illinois USA Gymnastics Level 3 State Championships GymNasti 4 3 Youth E 9.650 6T 9.075 17 9.400 5 9.525 2T 37.650 5T
2018-02-23 Kinetic Classic GymNasti 4 3 Middle 8.775 64T 9.050 51T 9.200 26T 9.225 48T 36.250 50T
2018-02-17 Women's Midwest Open GymNasti 10 3 Jr B 9.400 3 8.950 5 9.150 1 9.500 2 37.000 1T
2018-01-26 King Arthur Invitational GymNasti 5 3 SR A 8.725 18 9.050 6T 9.000 8T 9.200 4T 35.975 8
2018-01-12 St Jude Benefit Meet GymNasti 4A 3 SrA 8.800 10T 9.150 3 9.125 3 9.300 1 36.375 3
2017-12-08 St. Nick Invite GymNasti 6A 3 JrB 9.075 7T 9.350 1 9.225 1 9.400 1 37.050 3
2017-03-30 2017 Illinois Level 3 & 5 State GymNasti All 3 Ch D 8.950 29 8.150 28T 8.875 16T 8.925 18T 34.900 29
2017-02-17 Midwest Open GymNasti 1A 3 JR A 8.800 13 8.450 7 9.050 6 9.100 7 35.400 5
2017-02-10 IGI Chicago Style Gymnastics Meet GymNasti 212L 3 JrA 8.525 17 7.700 17 8.650 14 9.125 9 34.000 16
2017-01-20 2017 Bravo Classic GymNasti 10B 3 6-7yrs 9.000 14T 8.050 28 8.850 13 8.875 12 34.775 15
2017-01-13 St Jude Benefit Meet GymNasti 7A 3 Jr A 8.350 17T 7.700 17 7.600 13T 8.650 10 32.300 15
2016-12-09 St. Nick Invite GymNasti 5 3 All 8.750 76T 6.000 91 8.650 55T 8.650 57T 32.050 85T
Get your scores on
a t-shirt, pin, or hoodie

www.lazysuits.com